createdAt,value
2022-09-14T00:00:32.184Z,51.88
2022-09-14T00:01:32.198Z,46.25
2022-09-14T00:02:32.325Z,50.60
2022-09-14T00:03:32.140Z,52.05
2022-09-14T00:04:32.104Z,48.02
2022-09-14T00:05:32.139Z,48.98
2022-09-14T00:06:32.115Z,53.01
2022-09-14T00:07:32.074Z,50.11
2022-09-14T00:08:32.117Z,53.01
2022-09-14T00:09:32.055Z,49.95
2022-09-14T00:10:32.049Z,54.62
2022-09-14T00:11:32.043Z,53.33
2022-09-14T00:12:32.054Z,53.66
2022-09-14T00:13:31.999Z,54.95
2022-09-14T00:14:31.982Z,52.21
2022-09-14T00:15:31.991Z,54.14
2022-09-14T00:16:32.080Z,49.63
2022-09-14T00:17:31.969Z,49.63
2022-09-14T00:18:31.947Z,51.72
2022-09-14T00:19:31.932Z,53.98
2022-09-14T00:20:31.949Z,48.98
2022-09-14T00:21:31.951Z,49.63
2022-09-14T00:22:31.894Z,52.69
2022-09-14T00:23:32.517Z,53.33
2022-09-14T00:24:38.504Z,53.82
2022-09-14T00:25:32.884Z,54.14
2022-09-14T00:26:31.848Z,50.27
2022-09-14T00:27:32.443Z,52.53
2022-09-14T00:28:32.665Z,47.21
2022-09-14T00:29:31.854Z,53.98
2022-09-14T00:30:31.828Z,53.98
2022-09-14T00:31:32.004Z,54.79
2022-09-14T00:32:31.835Z,55.75
2022-09-14T00:33:31.837Z,53.17
2022-09-14T00:34:31.784Z,50.92
2022-09-14T00:35:31.796Z,55.27
2022-09-14T00:36:31.769Z,55.59
2022-09-14T00:37:32.568Z,53.17
2022-09-14T00:38:31.739Z,56.40
2022-09-14T00:39:31.763Z,55.11
2022-09-14T00:40:31.733Z,53.98
2022-09-14T00:41:31.731Z,54.14
2022-09-14T00:42:31.705Z,51.24
2022-09-14T00:43:31.728Z,51.40
2022-09-14T00:44:31.662Z,55.43
2022-09-14T00:45:31.698Z,50.92
2022-09-14T00:46:31.642Z,54.79
2022-09-14T00:47:31.692Z,54.46
2022-09-14T00:48:31.688Z,47.05
2022-09-14T00:49:31.656Z,53.17
2022-09-14T00:50:31.659Z,51.24
2022-09-14T00:51:31.602Z,54.62
2022-09-14T00:52:31.598Z,54.95
2022-09-14T00:53:31.618Z,54.30
2022-09-14T00:54:31.577Z,51.40
2022-09-14T00:55:31.557Z,56.24
2022-09-14T00:56:31.540Z,58.01
2022-09-14T00:57:31.545Z,52.69
2022-09-14T00:58:31.536Z,56.40
2022-09-14T00:59:31.579Z,55.27
2022-09-14T01:00:31.500Z,51.56
2022-09-14T01:01:31.562Z,53.50
2022-09-14T01:02:31.509Z,53.01
2022-09-14T01:03:31.455Z,56.72
2022-09-14T01:04:32.525Z,55.91
2022-09-14T01:05:31.469Z,53.01
2022-09-14T01:06:31.415Z,54.95
2022-09-14T01:07:31.463Z,57.85
2022-09-14T01:08:31.450Z,54.95
2022-09-14T01:09:31.441Z,54.95
2022-09-14T01:10:31.463Z,56.07
2022-09-14T01:11:31.389Z,51.56
2022-09-14T01:12:31.399Z,52.85
2022-09-14T01:13:31.388Z,56.56
2022-09-14T01:14:31.382Z,55.75
2022-09-14T01:15:31.425Z,55.43
2022-09-14T01:16:31.332Z,53.33
2022-09-14T01:17:31.319Z,48.66
2022-09-14T01:18:31.311Z,52.69
2022-09-14T01:19:31.297Z,54.14
2022-09-14T01:20:31.314Z,55.27
2022-09-14T01:21:31.254Z,51.88
2022-09-14T01:22:31.266Z,53.98
2022-09-14T01:23:31.241Z,54.46
2022-09-14T01:24:31.265Z,57.52
2022-09-14T01:25:31.271Z,52.69
2022-09-14T01:26:31.229Z,53.66
2022-09-14T01:27:31.206Z,53.33
2022-09-14T01:28:31.184Z,53.98
2022-09-14T01:29:31.193Z,54.95
2022-09-14T01:30:31.198Z,51.72
2022-09-14T01:31:31.222Z,55.27
2022-09-14T01:32:31.143Z,56.72
2022-09-14T01:33:31.177Z,55.27
2022-09-14T01:34:31.129Z,55.43
2022-09-14T01:35:31.240Z,54.95
2022-09-14T01:36:31.111Z,52.37
2022-09-14T01:37:31.133Z,51.24
2022-09-14T01:38:31.099Z,52.53
2022-09-14T01:39:31.084Z,53.98
2022-09-14T01:40:31.115Z,48.66
2022-09-14T01:41:31.108Z,54.95
2022-09-14T01:42:31.047Z,54.79
2022-09-14T01:43:31.039Z,56.07
2022-09-14T01:44:31.039Z,48.18
2022-09-14T01:45:31.047Z,50.60
2022-09-14T01:46:31.052Z,57.20
2022-09-14T01:47:30.990Z,55.43
2022-09-14T01:48:30.971Z,57.20
2022-09-14T01:49:31.045Z,53.01
2022-09-14T01:50:30.951Z,57.69
2022-09-14T01:51:31.023Z,57.69
2022-09-14T01:52:30.934Z,56.56
2022-09-14T01:53:30.918Z,54.30
2022-09-14T01:54:30.945Z,53.66
2022-09-14T01:55:30.919Z,57.69
2022-09-14T01:56:30.895Z,51.40
2022-09-14T01:57:30.945Z,53.66
2022-09-14T01:58:30.872Z,51.40
2022-09-14T01:59:30.945Z,56.07
2022-09-14T02:00:30.848Z,56.56
2022-09-14T02:01:30.906Z,57.04
2022-09-14T02:02:30.983Z,56.72
2022-09-14T02:03:30.810Z,56.07
2022-09-14T02:04:30.813Z,55.43
2022-09-14T02:05:30.792Z,58.81
2022-09-14T02:06:30.762Z,57.36
2022-09-14T02:07:31.810Z,53.33
2022-09-14T02:08:30.764Z,53.82
2022-09-14T02:09:30.736Z,53.66
2022-09-14T02:10:30.750Z,54.14
2022-09-14T02:11:30.744Z,55.75
2022-09-14T02:12:30.747Z,56.56
2022-09-14T02:13:30.706Z,54.14
2022-09-14T02:14:30.703Z,56.07
2022-09-14T02:15:30.667Z,57.85
2022-09-14T02:16:30.751Z,55.27
2022-09-14T02:17:30.681Z,55.27
2022-09-14T02:18:30.636Z,57.69
2022-09-14T02:19:30.652Z,53.66
2022-09-14T02:20:30.634Z,52.37
2022-09-14T02:21:30.630Z,52.69
2022-09-14T02:22:30.629Z,54.14
2022-09-14T02:23:30.662Z,53.98
2022-09-14T02:24:30.590Z,53.98
2022-09-14T02:25:31.592Z,55.59
2022-09-14T02:26:30.584Z,56.24
2022-09-14T02:27:30.804Z,55.75
2022-09-14T02:28:30.585Z,57.69
2022-09-14T02:29:30.554Z,57.36
2022-09-14T02:30:30.539Z,55.59
2022-09-14T02:31:30.541Z,54.95
2022-09-14T02:32:30.518Z,54.14
2022-09-14T02:33:30.528Z,53.01
2022-09-14T02:34:30.522Z,52.69
2022-09-14T02:35:30.481Z,58.49
2022-09-14T02:36:30.627Z,54.46
2022-09-14T02:37:30.524Z,56.56
2022-09-14T02:38:30.462Z,57.69
2022-09-14T02:39:30.585Z,55.43
2022-09-14T02:40:30.499Z,50.76
2022-09-14T02:41:30.419Z,54.46
2022-09-14T02:42:30.457Z,53.66
2022-09-14T02:43:30.426Z,54.79
2022-09-14T02:44:30.382Z,55.59
2022-09-14T02:45:30.403Z,56.72
2022-09-14T02:46:30.436Z,55.43
2022-09-14T02:47:30.381Z,54.62
2022-09-14T02:48:30.347Z,54.79
2022-09-14T02:49:31.370Z,55.59
2022-09-14T02:50:30.346Z,53.33
2022-09-14T02:51:30.321Z,56.40
2022-09-14T02:52:30.299Z,56.24
2022-09-14T02:53:30.347Z,55.75
2022-09-14T02:54:30.297Z,54.95
2022-09-14T02:55:30.304Z,54.79
2022-09-14T02:56:30.285Z,55.27
2022-09-14T02:57:31.275Z,56.07
2022-09-14T02:58:30.266Z,55.11
2022-09-14T02:59:30.230Z,53.17
2022-09-14T03:00:30.223Z,56.72
2022-09-14T03:01:30.289Z,57.85
2022-09-14T03:02:30.167Z,57.69
2022-09-14T03:03:34.841Z,58.49
2022-09-14T03:04:30.169Z,56.88
2022-09-14T03:05:30.165Z,58.33
2022-09-14T03:06:30.134Z,58.01
2022-09-14T03:07:30.158Z,59.78
2022-09-14T03:08:30.117Z,59.78
2022-09-14T03:09:30.143Z,58.81
2022-09-14T03:10:30.141Z,56.56
2022-09-14T03:11:30.104Z,55.11
2022-09-14T03:12:30.122Z,60.42
2022-09-14T03:13:30.105Z,60.10
2022-09-14T03:14:30.050Z,57.69
2022-09-14T03:15:30.056Z,57.04
2022-09-14T03:16:30.149Z,58.33
2022-09-14T03:17:30.057Z,55.91
2022-09-14T03:18:30.048Z,56.07
2022-09-14T03:19:30.036Z,57.52
2022-09-14T03:20:29.991Z,59.30
2022-09-14T03:21:29.999Z,58.17
2022-09-14T03:22:30.497Z,57.20
2022-09-14T03:23:30.037Z,57.36
2022-09-14T03:24:29.953Z,53.66
2022-09-14T03:25:29.960Z,56.72
2022-09-14T03:26:29.941Z,57.52
2022-09-14T03:27:29.948Z,58.01
2022-09-14T03:28:29.947Z,56.72
2022-09-14T03:29:29.892Z,57.85
2022-09-14T03:30:29.918Z,57.20
2022-09-14T03:31:30.340Z,58.01
2022-09-14T03:32:29.868Z,58.01
2022-09-14T03:33:29.865Z,57.20
2022-09-14T03:34:29.855Z,55.27
2022-09-14T03:35:29.873Z,56.24
2022-09-14T03:36:29.817Z,57.36
2022-09-14T03:37:29.819Z,57.85
2022-09-14T03:38:29.817Z,57.20
2022-09-14T03:39:29.830Z,59.62
2022-09-14T03:40:29.839Z,57.20
2022-09-14T03:41:29.799Z,57.85
2022-09-14T03:42:29.758Z,57.85
2022-09-14T03:43:29.817Z,58.17
2022-09-14T03:44:29.779Z,60.42
2022-09-14T03:45:29.771Z,61.55
2022-09-14T03:46:29.790Z,59.78
2022-09-14T03:47:29.708Z,53.17
2022-09-14T03:48:29.707Z,55.43
2022-09-14T03:49:29.707Z,61.87
2022-09-14T03:50:29.716Z,58.17
2022-09-14T03:51:29.687Z,60.42
2022-09-14T03:52:29.664Z,60.26
2022-09-14T03:53:29.651Z,61.23
2022-09-14T03:54:29.647Z,62.04
2022-09-14T03:55:29.657Z,60.26
2022-09-14T03:56:29.631Z,59.78
2022-09-14T03:57:29.586Z,59.46
2022-09-14T03:58:29.597Z,58.17
2022-09-14T03:59:29.662Z,57.20
2022-09-14T04:00:29.566Z,59.78
2022-09-14T04:01:29.614Z,59.46
2022-09-14T04:02:29.620Z,59.30
2022-09-14T04:03:29.540Z,58.01
2022-09-14T04:04:29.527Z,58.97
2022-09-14T04:05:30.515Z,59.94
2022-09-14T04:06:29.562Z,59.46
2022-09-14T04:07:29.500Z,61.39
2022-09-14T04:08:29.483Z,60.26
2022-09-14T04:09:29.461Z,59.46
2022-09-14T04:10:29.493Z,59.94
2022-09-14T04:11:29.479Z,59.94
2022-09-14T04:12:29.441Z,59.62
2022-09-14T04:13:29.441Z,59.78
2022-09-14T04:14:29.421Z,59.62
2022-09-14T04:15:29.420Z,58.97
2022-09-14T04:16:29.449Z,58.65
2022-09-14T04:17:30.158Z,59.14
2022-09-14T04:18:29.389Z,60.10
2022-09-14T04:19:29.367Z,59.78
2022-09-14T04:20:29.362Z,58.65
2022-09-14T04:21:29.344Z,59.62
2022-09-14T04:22:29.368Z,60.26
2022-09-14T04:23:29.337Z,57.85
2022-09-14T04:24:30.638Z,58.97
2022-09-14T04:25:30.312Z,59.14
2022-09-14T04:26:30.010Z,59.30
2022-09-14T04:27:29.288Z,60.26
2022-09-14T04:28:29.344Z,57.20
2022-09-14T04:29:29.264Z,55.59
2022-09-14T04:30:29.255Z,60.59
2022-09-14T04:31:29.279Z,58.49
2022-09-14T04:32:34.035Z,59.30
2022-09-14T04:33:29.442Z,58.33
2022-09-14T04:34:29.265Z,59.62
2022-09-14T04:35:29.309Z,59.62
2022-09-14T04:36:29.199Z,58.01
2022-09-14T04:37:29.234Z,61.23
2022-09-14T04:38:29.192Z,60.10
2022-09-14T04:39:29.177Z,59.30
2022-09-14T04:40:29.251Z,60.91
2022-09-14T04:41:29.164Z,61.39
2022-09-14T04:42:29.125Z,59.30
2022-09-14T04:43:29.127Z,60.59
2022-09-14T04:44:29.139Z,58.49
2022-09-14T04:45:29.115Z,60.91
2022-09-14T04:46:29.129Z,61.87
2022-09-14T04:47:29.092Z,58.17
2022-09-14T04:48:29.070Z,59.62
2022-09-14T04:49:29.082Z,61.07
2022-09-14T04:50:29.075Z,61.07
2022-09-14T04:51:29.027Z,62.36
2022-09-14T04:52:29.073Z,59.30
2022-09-14T04:53:29.017Z,62.20
2022-09-14T04:54:28.993Z,60.10
2022-09-14T04:55:29.063Z,59.30
2022-09-14T04:56:28.995Z,58.49
2022-09-14T04:57:28.973Z,60.75
2022-09-14T04:58:28.975Z,61.07
2022-09-14T04:59:28.965Z,59.78
2022-09-14T05:00:28.985Z,60.26
2022-09-14T05:01:28.969Z,59.94
2022-09-14T05:02:28.936Z,59.14
2022-09-14T05:03:29.005Z,59.30
2022-09-14T05:04:28.893Z,59.78
2022-09-14T05:05:28.878Z,57.20
2022-09-14T05:06:28.896Z,57.36
2022-09-14T05:07:28.857Z,58.49
2022-09-14T05:08:28.870Z,56.88
2022-09-14T05:09:28.839Z,59.30
2022-09-14T05:10:28.823Z,59.78
2022-09-14T05:11:28.873Z,58.81
2022-09-14T05:12:28.849Z,58.81
2022-09-14T05:13:28.800Z,61.07
2022-09-14T05:14:28.803Z,58.81
2022-09-14T05:15:28.767Z,59.78
2022-09-14T05:16:28.868Z,60.59
2022-09-14T05:17:28.759Z,59.62
2022-09-14T05:18:28.748Z,58.81
2022-09-14T05:19:28.733Z,58.33
2022-09-14T05:20:28.902Z,59.78
2022-09-14T05:21:28.719Z,60.75
2022-09-14T05:22:28.715Z,59.46
2022-09-14T05:23:28.705Z,60.10
2022-09-14T05:24:28.694Z,60.75
2022-09-14T05:25:28.682Z,58.65
2022-09-14T05:26:28.672Z,58.97
2022-09-14T05:27:28.671Z,61.39
2022-09-14T05:28:28.655Z,59.46
2022-09-14T05:29:28.637Z,58.65
2022-09-14T05:30:28.629Z,59.46
2022-09-14T05:31:28.663Z,60.42
2022-09-14T05:32:28.640Z,60.59
2022-09-14T05:33:28.611Z,60.42
2022-09-14T05:34:28.565Z,58.17
2022-09-14T05:35:28.570Z,56.56
2022-09-14T05:36:28.583Z,58.17
2022-09-14T05:37:28.557Z,59.46
2022-09-14T05:38:28.574Z,60.91
2022-09-14T05:39:28.536Z,60.42
2022-09-14T05:40:28.580Z,59.30
2022-09-14T05:41:28.512Z,58.33
2022-09-14T05:42:28.517Z,58.01
2022-09-14T05:43:28.544Z,58.81
2022-09-14T05:44:28.497Z,59.14
2022-09-14T05:45:28.479Z,60.59
2022-09-14T05:46:28.507Z,59.30
2022-09-14T05:47:28.505Z,58.65
2022-09-14T05:48:28.435Z,60.10
2022-09-14T05:49:28.454Z,58.17
2022-09-14T05:50:28.435Z,58.81
2022-09-14T05:51:28.469Z,57.36
2022-09-14T05:52:28.408Z,60.10
2022-09-14T05:53:28.393Z,61.71
2022-09-14T05:54:28.388Z,59.62
2022-09-14T05:55:28.365Z,60.42
2022-09-14T05:56:28.371Z,60.91
2022-09-14T05:57:29.366Z,59.14
2022-09-14T05:58:28.357Z,58.81
2022-09-14T05:59:28.395Z,58.33
2022-09-14T06:00:28.359Z,59.14
2022-09-14T06:01:28.371Z,57.04
2022-09-14T06:02:28.310Z,59.30
2022-09-14T06:03:28.325Z,61.71
2022-09-14T06:04:28.285Z,60.42
2022-09-14T06:05:28.338Z,60.10
2022-09-14T06:06:28.266Z,61.39
2022-09-14T06:07:28.328Z,61.07
2022-09-14T06:08:28.273Z,59.94
2022-09-14T06:09:32.926Z,61.39
2022-09-14T06:10:28.205Z,61.39
2022-09-14T06:11:28.213Z,63.16
2022-09-14T06:12:28.181Z,60.59
2022-09-14T06:13:28.153Z,59.14
2022-09-14T06:14:28.177Z,58.49
2022-09-14T06:15:28.182Z,58.33
2022-09-14T06:16:28.284Z,58.81
2022-09-14T06:17:28.150Z,56.56
2022-09-14T06:18:28.143Z,56.56
2022-09-14T06:19:28.102Z,55.27
2022-09-14T06:20:28.185Z,57.20
2022-09-14T06:21:28.130Z,59.78
2022-09-14T06:22:28.077Z,56.88
2022-09-14T06:23:28.072Z,58.33
2022-09-14T06:24:28.078Z,58.17
2022-09-14T06:25:28.174Z,56.40
2022-09-14T06:26:28.116Z,56.24
2022-09-14T06:27:28.060Z,56.88
2022-09-14T06:28:28.038Z,57.20
2022-09-14T06:29:28.010Z,56.72
2022-09-14T06:30:28.014Z,58.33
2022-09-14T06:31:28.010Z,57.85
2022-09-14T06:32:27.983Z,58.33
2022-09-14T06:33:27.965Z,57.69
2022-09-14T06:34:27.954Z,55.91
2022-09-14T06:35:27.948Z,55.43
2022-09-14T06:36:27.954Z,54.62
2022-09-14T06:37:27.920Z,56.07
2022-09-14T06:38:27.939Z,56.88
2022-09-14T06:39:27.900Z,55.43
2022-09-14T06:40:28.000Z,54.79
2022-09-14T06:41:27.908Z,54.95
2022-09-14T06:42:27.870Z,56.88
2022-09-14T06:43:27.853Z,55.91
2022-09-14T06:44:27.843Z,56.88
2022-09-14T06:45:27.838Z,55.11
2022-09-14T06:46:27.825Z,57.52
2022-09-14T06:47:27.805Z,56.40
2022-09-14T06:48:27.796Z,57.52
2022-09-14T06:49:27.790Z,57.69
2022-09-14T06:50:27.796Z,58.65
2022-09-14T06:51:27.780Z,56.72
2022-09-14T06:52:31.722Z,55.27
2022-09-14T06:53:27.726Z,54.95
2022-09-14T06:54:27.736Z,55.59
2022-09-14T06:55:27.750Z,57.36
2022-09-14T06:56:27.732Z,54.79
2022-09-14T06:57:27.689Z,54.62
2022-09-14T06:58:27.679Z,55.43
2022-09-14T06:59:27.688Z,56.72
2022-09-14T07:00:27.696Z,57.20
2022-09-14T07:01:27.699Z,53.50
2022-09-14T07:02:27.698Z,56.07
2022-09-14T07:03:27.629Z,55.75
2022-09-14T07:04:27.630Z,57.04
2022-09-14T07:05:27.669Z,54.79
2022-09-14T07:06:27.643Z,54.79
2022-09-14T07:07:27.594Z,55.91
2022-09-14T07:08:27.653Z,55.59
2022-09-14T07:09:27.577Z,54.62
2022-09-14T07:10:27.590Z,55.43
2022-09-14T07:11:27.996Z,54.95
2022-09-14T07:12:27.575Z,56.72
2022-09-14T07:13:28.971Z,55.27
2022-09-14T07:14:32.013Z,56.72
2022-09-14T07:15:27.651Z,57.04
2022-09-14T07:16:27.582Z,57.69
2022-09-14T07:17:27.506Z,55.27
2022-09-14T07:18:27.565Z,57.04
2022-09-14T07:19:27.547Z,55.59
2022-09-14T07:20:27.844Z,58.33
2022-09-14T07:21:27.552Z,58.17
2022-09-14T07:22:27.636Z,57.85
2022-09-14T07:23:27.470Z,55.91
2022-09-14T07:24:27.553Z,55.27
2022-09-14T07:25:27.453Z,57.85
2022-09-14T07:26:27.611Z,58.65
2022-09-14T07:27:27.610Z,56.24
2022-09-14T07:28:27.450Z,58.17
2022-09-14T07:29:27.398Z,55.75
2022-09-14T07:30:27.437Z,54.30
2022-09-14T07:31:27.581Z,55.43
2022-09-14T07:32:27.352Z,58.01
2022-09-14T07:33:27.372Z,54.62
2022-09-14T07:34:27.354Z,57.85
2022-09-14T07:35:27.332Z,58.65
2022-09-14T07:36:29.501Z,55.59
2022-09-14T07:37:27.298Z,59.46
2022-09-14T07:38:48.598Z,58.49
2022-09-14T07:39:27.277Z,57.69
2022-09-14T07:40:27.379Z,54.79
2022-09-14T07:41:27.314Z,55.43
2022-09-14T07:42:27.246Z,57.52
2022-09-14T07:43:27.233Z,58.65
2022-09-14T07:44:27.213Z,58.01
2022-09-14T07:45:27.217Z,57.04
2022-09-14T07:46:27.239Z,57.20
2022-09-14T07:47:27.164Z,57.04
2022-09-14T07:48:27.206Z,58.33
2022-09-14T07:49:27.158Z,57.36
2022-09-14T07:50:27.150Z,57.85
2022-09-14T07:51:27.193Z,55.27
2022-09-14T07:52:27.148Z,57.85
2022-09-14T07:53:27.170Z,56.88
2022-09-14T07:54:27.135Z,56.56
2022-09-14T07:55:27.105Z,58.81
2022-09-14T07:56:27.177Z,57.52
2022-09-14T07:57:52.177Z,58.97
2022-09-14T07:58:27.075Z,55.91
2022-09-14T07:59:42.285Z,56.88
2022-09-14T08:00:29.042Z,55.59
2022-09-14T08:01:27.116Z,57.69
2022-09-14T08:02:27.065Z,57.04
2022-09-14T08:03:27.027Z,58.01
2022-09-14T08:04:27.012Z,54.79
2022-09-14T08:05:26.978Z,57.36
2022-09-14T08:06:27.673Z,55.59
2022-09-14T08:07:26.969Z,55.91
2022-09-14T08:08:26.954Z,56.88
2022-09-14T08:09:26.946Z,54.79
2022-09-14T08:10:26.942Z,55.27
2022-09-14T08:11:26.921Z,54.79
2022-09-14T08:12:26.933Z,53.17
2022-09-14T08:13:26.921Z,57.20
2022-09-14T08:14:26.900Z,56.72
2022-09-14T08:15:28.645Z,57.52
2022-09-14T08:16:26.909Z,56.88
2022-09-14T08:17:26.898Z,55.59
2022-09-14T08:18:26.878Z,55.43
2022-09-14T08:19:26.851Z,57.20
2022-09-14T08:20:26.824Z,55.91
2022-09-14T08:21:26.866Z,58.33
2022-09-14T08:22:26.857Z,58.17
2022-09-14T08:23:26.813Z,57.04
2022-09-14T08:24:26.805Z,56.88
2022-09-14T08:25:26.798Z,58.01
2022-09-14T08:26:26.766Z,58.17
2022-09-14T08:27:26.791Z,56.40
2022-09-14T08:28:26.765Z,56.72
2022-09-14T08:29:26.748Z,58.01
2022-09-14T08:30:27.761Z,57.36
2022-09-14T08:31:26.750Z,57.85
2022-09-14T08:32:26.765Z,59.62
2022-09-14T08:33:26.746Z,57.52
2022-09-14T08:34:26.693Z,57.36
2022-09-14T08:35:46.851Z,59.30
2022-09-14T08:36:26.686Z,57.52
2022-09-14T08:37:26.692Z,58.97
2022-09-14T08:38:26.633Z,60.26
2022-09-14T08:39:26.649Z,59.30
2022-09-14T08:40:26.659Z,57.69
2022-09-14T08:41:26.619Z,58.33
2022-09-14T08:42:26.626Z,58.81
2022-09-14T08:43:26.649Z,58.81
2022-09-14T08:44:26.607Z,59.46
2022-09-14T08:45:26.630Z,55.75
2022-09-14T08:46:26.613Z,57.52
2022-09-14T08:47:26.624Z,59.14
2022-09-14T08:48:26.583Z,57.69
2022-09-14T08:49:26.538Z,58.81
2022-09-14T08:50:26.524Z,59.30
2022-09-14T08:51:26.510Z,59.14
2022-09-14T08:52:26.532Z,58.01
2022-09-14T08:53:26.488Z,58.33
2022-09-14T08:54:26.508Z,57.04
2022-09-14T08:55:26.478Z,58.81
2022-09-14T08:56:26.447Z,58.65
2022-09-14T08:57:26.453Z,57.20
2022-09-14T08:58:26.469Z,58.33
2022-09-14T08:59:26.468Z,60.26
2022-09-14T09:00:26.403Z,57.04
2022-09-14T09:01:26.481Z,59.62
2022-09-14T09:02:26.386Z,57.20
2022-09-14T09:03:26.442Z,58.81
2022-09-14T09:04:26.398Z,58.17
2022-09-14T09:05:26.437Z,58.33
2022-09-14T09:06:26.355Z,57.85
2022-09-14T09:07:26.367Z,58.81
2022-09-14T09:08:26.332Z,61.55
2022-09-14T09:09:26.295Z,61.23
2022-09-14T09:10:26.331Z,59.94
2022-09-14T09:11:26.312Z,60.10
2022-09-14T09:12:26.279Z,60.75
2022-09-14T09:13:26.261Z,60.10
2022-09-14T09:14:26.268Z,60.42
2022-09-14T09:15:26.225Z,56.40
2022-09-14T09:16:26.274Z,60.10
2022-09-14T09:17:26.220Z,60.10
2022-09-14T09:18:26.199Z,59.94
2022-09-14T09:19:28.706Z,60.75
2022-09-14T09:20:26.189Z,61.55
2022-09-14T09:21:26.192Z,59.46
2022-09-14T09:22:26.168Z,60.10
2022-09-14T09:23:26.170Z,58.97
2022-09-14T09:24:26.261Z,60.75
2022-09-14T09:25:26.174Z,59.30
2022-09-14T09:26:26.194Z,60.59
2022-09-14T09:27:26.138Z,61.71
2022-09-14T09:28:26.100Z,61.07
2022-09-14T09:29:26.094Z,59.14
2022-09-14T09:30:26.090Z,61.87
2022-09-14T09:31:26.165Z,61.23
2022-09-14T09:32:26.084Z,61.55
2022-09-14T09:33:26.041Z,57.85
2022-09-14T09:34:26.042Z,60.10
2022-09-14T09:35:26.045Z,58.81
2022-09-14T09:36:26.009Z,60.42
2022-09-14T09:37:26.024Z,60.42
2022-09-14T09:38:26.009Z,58.01
2022-09-14T09:39:25.993Z,60.10
2022-09-14T09:40:26.035Z,61.39
2022-09-14T09:41:25.981Z,60.91
2022-09-14T09:42:25.984Z,61.71
2022-09-14T09:43:47.833Z,60.75
2022-09-14T09:44:25.954Z,62.36
2022-09-14T09:45:25.923Z,62.04
2022-09-14T09:46:25.979Z,60.91
2022-09-14T09:47:25.928Z,61.71
2022-09-14T09:48:25.916Z,60.26
2022-09-14T09:49:25.883Z,58.49
2022-09-14T09:50:25.905Z,61.07
2022-09-14T09:51:25.868Z,62.84
2022-09-14T09:52:25.870Z,62.84
2022-09-14T09:53:25.851Z,62.52
2022-09-14T09:54:25.848Z,56.72
2022-09-14T09:55:25.803Z,60.75
2022-09-14T09:56:27.018Z,60.26
2022-09-14T09:57:25.833Z,61.07
2022-09-14T09:58:25.781Z,60.91
2022-09-14T09:59:25.781Z,62.20
2022-09-14T10:00:25.784Z,61.23
2022-09-14T10:01:25.812Z,62.68
2022-09-14T10:02:25.885Z,62.68
2022-09-14T10:03:25.750Z,62.52
2022-09-14T10:04:25.710Z,61.23
2022-09-14T10:05:25.742Z,58.33
2022-09-14T10:06:25.733Z,60.91
2022-09-14T10:07:25.746Z,61.39
2022-09-14T10:08:25.695Z,60.10
2022-09-14T10:09:25.679Z,60.75
2022-09-14T10:10:25.663Z,60.75
2022-09-14T10:11:25.651Z,59.46
2022-09-14T10:12:25.682Z,60.75
2022-09-14T10:13:25.665Z,59.30
2022-09-14T10:14:25.611Z,58.33
2022-09-14T10:15:25.605Z,59.78
2022-09-14T10:16:25.685Z,61.07
2022-09-14T10:17:25.568Z,61.07
2022-09-14T10:18:25.590Z,60.26
2022-09-14T10:19:25.593Z,57.04
2022-09-14T10:20:25.579Z,62.36
2022-09-14T10:21:25.553Z,61.23
2022-09-14T10:22:26.615Z,62.36
2022-09-14T10:23:26.554Z,57.52
2022-09-14T10:24:25.519Z,58.65
2022-09-14T10:25:25.517Z,59.46
2022-09-14T10:26:25.494Z,60.91
2022-09-14T10:27:25.500Z,60.59
2022-09-14T10:28:25.506Z,61.71
2022-09-14T10:29:25.453Z,61.23
2022-09-14T10:30:25.460Z,61.39
2022-09-14T10:31:25.486Z,60.91
2022-09-14T10:32:25.472Z,61.23
2022-09-14T10:33:25.491Z,62.04
2022-09-14T10:34:25.429Z,62.52
2022-09-14T10:35:25.404Z,61.87
2022-09-14T10:36:25.420Z,58.81
2022-09-14T10:37:25.405Z,59.78
2022-09-14T10:38:25.368Z,61.87
2022-09-14T10:39:26.293Z,61.55
2022-09-14T10:40:25.385Z,60.26
2022-09-14T10:41:25.330Z,60.59
2022-09-14T10:42:25.400Z,60.59
2022-09-14T10:43:25.334Z,61.07
2022-09-14T10:44:25.340Z,59.78
2022-09-14T10:45:25.285Z,62.68
2022-09-14T10:46:25.322Z,60.59
2022-09-14T10:47:25.263Z,62.68
2022-09-14T10:48:25.276Z,62.84
2022-09-14T10:49:25.278Z,63.00
2022-09-14T10:50:25.250Z,61.23
2022-09-14T10:51:25.232Z,60.42
2022-09-14T10:52:25.206Z,60.42
2022-09-14T10:53:25.225Z,62.04
2022-09-14T10:54:25.233Z,61.23
2022-09-14T10:55:25.200Z,60.91
2022-09-14T10:56:25.180Z,62.84
2022-09-14T10:57:25.172Z,62.84
2022-09-14T10:58:25.153Z,62.84
2022-09-14T10:59:25.204Z,62.52
2022-09-14T11:00:25.424Z,62.84
2022-09-14T11:01:25.147Z,63.00
2022-09-14T11:02:25.312Z,62.20
2022-09-14T11:03:25.111Z,61.71
2022-09-14T11:04:25.086Z,61.55
2022-09-14T11:05:25.102Z,61.87
2022-09-14T11:06:25.090Z,61.07
2022-09-14T11:07:25.048Z,64.13
2022-09-14T11:08:25.046Z,62.68
2022-09-14T11:09:25.276Z,61.71
2022-09-14T11:10:25.100Z,61.87
2022-09-14T11:11:24.999Z,62.20
2022-09-14T11:12:25.001Z,61.39
2022-09-14T11:13:24.988Z,61.87
2022-09-14T11:14:24.969Z,63.49
2022-09-14T11:15:24.963Z,62.52
2022-09-14T11:16:25.059Z,62.36
2022-09-14T11:17:24.944Z,62.36
2022-09-14T11:18:24.934Z,61.55
2022-09-14T11:19:24.924Z,62.36
2022-09-14T11:20:24.921Z,62.04
2022-09-14T11:21:24.954Z,61.55
2022-09-14T11:22:24.895Z,63.81
2022-09-14T11:23:24.861Z,64.13
2022-09-14T11:24:24.861Z,64.13
2022-09-14T11:25:24.870Z,61.71
2022-09-14T11:26:24.881Z,60.91
2022-09-14T11:27:24.836Z,63.16
2022-09-14T11:28:24.829Z,62.52
2022-09-14T11:29:24.821Z,61.07
2022-09-14T11:30:25.652Z,62.04
2022-09-14T11:31:24.880Z,62.36
2022-09-14T11:32:24.807Z,61.07
2022-09-14T11:33:29.053Z,63.81
2022-09-14T11:34:24.768Z,62.36
2022-09-14T11:35:24.768Z,62.68
2022-09-14T11:36:24.778Z,62.68
2022-09-14T11:37:24.798Z,63.65
2022-09-14T11:38:24.699Z,62.52
2022-09-14T11:39:24.719Z,62.52
2022-09-14T11:40:24.738Z,61.23
2022-09-14T11:41:24.677Z,61.87
2022-09-14T11:42:24.739Z,61.07
2022-09-14T11:43:24.740Z,60.10
2022-09-14T11:44:24.663Z,60.42
2022-09-14T11:45:24.654Z,60.26
2022-09-14T11:46:24.689Z,59.30
2022-09-14T11:47:24.682Z,60.59
2022-09-14T11:49:26.612Z,60.59
2022-09-14T11:50:24.600Z,60.91
2022-09-14T11:51:24.585Z,60.59
2022-09-14T11:52:24.578Z,58.81
2022-09-14T11:53:24.613Z,58.33
2022-09-14T11:54:24.558Z,60.10
2022-09-14T11:55:25.122Z,58.97
2022-09-14T11:56:24.527Z,58.81
2022-09-14T11:57:24.516Z,58.49
2022-09-14T11:58:24.543Z,58.33
2022-09-14T11:59:24.487Z,58.65
2022-09-14T12:00:24.501Z,56.88
2022-09-14T12:01:24.476Z,54.14
2022-09-14T12:02:24.480Z,59.94
2022-09-14T12:03:24.534Z,59.30
2022-09-14T12:04:24.987Z,59.78
2022-09-14T12:05:24.464Z,58.97
2022-09-14T12:06:24.445Z,59.94
2022-09-14T12:07:24.403Z,58.33
2022-09-14T12:08:24.402Z,60.75
2022-09-14T12:12:21.135Z,56.24
2022-09-14T12:13:21.302Z,57.36
2022-09-14T12:14:21.056Z,57.69
2022-09-14T12:15:21.250Z,58.17
2022-09-14T12:16:21.039Z,57.85
2022-09-14T12:18:20.994Z,56.24
2022-09-14T12:19:20.987Z,56.88
2022-09-14T12:20:20.986Z,57.36
2022-09-14T12:21:20.995Z,57.36
2022-09-14T12:22:20.952Z,57.36
2022-09-14T12:23:20.949Z,57.04
2022-09-14T12:24:20.921Z,57.36
2022-09-14T12:25:21.088Z,56.40
2022-09-14T12:26:20.948Z,57.04
2022-09-14T12:27:20.901Z,57.20
2022-09-14T12:28:20.898Z,57.52
2022-09-14T12:29:20.875Z,58.33
2022-09-14T12:30:20.855Z,57.52
2022-09-14T12:31:20.938Z,58.65
2022-09-14T12:32:35.730Z,59.30
2022-09-14T12:33:20.841Z,60.10
2022-09-14T12:34:20.813Z,61.39
2022-09-14T12:35:20.809Z,61.07
2022-09-14T12:36:20.803Z,57.85
2022-09-14T12:37:20.806Z,60.42
2022-09-14T12:38:20.773Z,62.36
2022-09-14T12:39:20.785Z,59.78
2022-09-14T12:40:20.830Z,61.39
2022-09-14T12:41:20.743Z,58.81
2022-09-14T12:42:25.153Z,59.30
2022-09-14T12:43:20.715Z,59.30
2022-09-14T12:44:20.722Z,58.33
2022-09-14T12:45:20.696Z,60.42
2022-09-14T12:46:20.823Z,61.71
2022-09-14T12:47:20.713Z,58.01
2022-09-14T12:48:20.652Z,60.26
2022-09-14T12:49:20.651Z,60.42
2022-09-14T12:50:20.665Z,60.75
2022-09-14T12:51:20.632Z,62.20
2022-09-14T12:52:20.607Z,61.55
2022-09-14T12:53:20.634Z,61.55
2022-09-14T12:54:20.603Z,60.75
2022-09-14T12:55:20.585Z,61.55
2022-09-14T12:56:20.571Z,60.91
2022-09-14T12:57:20.563Z,60.75